createdAt,value
2022-11-29T06:18:59.046Z,90.90
2022-11-29T06:22:20.768Z,90.90
2022-11-29T06:25:53.290Z,90.90
2022-11-29T06:29:12.123Z,90.80
2022-11-29T06:32:34.619Z,90.80
2022-11-29T06:35:57.933Z,90.80
2022-11-29T06:39:00.081Z,90.90
2022-11-29T06:42:01.853Z,90.90
2022-11-29T06:45:04.391Z,90.90
2022-11-29T06:48:06.792Z,90.90
2022-11-29T06:51:27.376Z,90.80
2022-11-29T06:54:38.833Z,90.80
2022-11-29T06:57:55.979Z,90.90
2022-11-29T07:01:04.797Z,90.90
2022-11-29T07:04:22.247Z,90.80
2022-11-29T07:07:24.340Z,90.80
2022-11-29T07:10:26.180Z,90.90
2022-11-29T07:13:28.158Z,90.80
2022-11-29T07:16:48.412Z,90.70
2022-11-29T07:19:57.017Z,90.80
2022-11-29T07:23:50.890Z,90.60
2022-11-29T07:27:11.615Z,90.60
2022-11-29T07:30:16.988Z,90.60
2022-11-29T07:33:22.342Z,90.60
2022-11-29T07:36:49.610Z,90.60
2022-11-29T07:40:35.959Z,90.70
2022-11-29T07:44:04.345Z,90.60
2022-11-29T07:47:06.109Z,90.60
2022-11-29T07:50:08.407Z,90.60
2022-11-29T07:53:19.914Z,90.60
2022-11-29T07:56:21.563Z,90.40
2022-11-29T07:59:23.425Z,90.30
2022-11-29T08:02:31.454Z,90.40
2022-11-29T08:05:33.168Z,90.40
2022-11-29T08:08:37.879Z,90.60
2022-11-29T08:11:44.788Z,90.60
2022-11-29T08:14:46.680Z,90.70
2022-11-29T08:17:48.635Z,90.50
2022-11-29T08:20:50.406Z,90.50
2022-11-29T08:23:52.316Z,90.50
2022-11-29T08:26:54.336Z,90.60
2022-11-29T08:29:55.994Z,90.60
2022-11-29T08:32:57.696Z,90.50
2022-11-29T08:36:05.740Z,90.60
2022-11-29T08:39:09.609Z,90.50
2022-11-29T08:42:11.531Z,90.30
2022-11-29T08:45:13.339Z,90.10
2022-11-29T08:48:15.367Z,90.10
2022-11-29T08:51:17.088Z,90.00
2022-11-29T08:54:18.795Z,90.00
2022-11-29T09:00:43.575Z,90.10
2022-11-29T09:04:00.598Z,90.00
2022-11-29T09:07:02.421Z,90.00
2022-11-29T09:10:08.096Z,90.00
2022-11-29T09:13:10.162Z,90.00
2022-11-29T09:16:13.557Z,89.90
2022-11-29T09:19:15.371Z,90.00
2022-11-29T09:22:18.197Z,90.00
2022-11-29T09:25:19.875Z,89.80
2022-11-29T09:28:21.674Z,89.70
2022-11-29T09:31:23.501Z,89.40
2022-11-29T09:34:25.249Z,89.30
2022-11-29T09:37:27.255Z,89.40
2022-11-29T09:40:40.213Z,89.40
2022-11-29T09:44:00.822Z,89.40
2022-11-29T09:47:25.024Z,89.40
2022-11-29T09:50:35.750Z,89.30
2022-11-29T09:54:08.282Z,89.00
2022-11-29T09:57:10.982Z,89.00
2022-11-29T10:00:17.008Z,89.00
2022-11-29T10:03:29.603Z,89.00
2022-11-29T10:06:38.918Z,89.20
2022-11-29T10:10:02.333Z,89.30
2022-11-29T10:13:26.200Z,89.10
2022-11-29T10:16:42.150Z,89.10
2022-11-29T10:19:46.775Z,88.90
2022-11-29T10:23:20.493Z,88.90
2022-11-29T10:26:23.066Z,88.90
2022-11-29T10:29:25.061Z,88.80
2022-11-29T10:32:30.765Z,88.90
2022-11-29T10:35:32.575Z,89.00
2022-11-29T10:38:34.285Z,88.90
2022-11-29T10:41:35.960Z,88.90
2022-11-29T10:44:37.596Z,89.00
2022-11-29T10:47:39.264Z,89.00
2022-11-29T10:50:43.870Z,88.90
2022-11-29T10:53:46.571Z,88.90
2022-11-29T10:56:48.442Z,88.90
2022-11-29T10:59:58.551Z,88.80
2022-11-29T11:03:18.404Z,88.60
2022-11-29T11:06:20.906Z,88.60
2022-11-29T11:09:30.799Z,88.70
2022-11-29T11:12:33.572Z,88.50
2022-11-29T11:15:35.455Z,88.30
2022-11-29T11:18:37.354Z,88.10
2022-11-29T11:21:39.074Z,88.20
2022-11-29T11:24:41.285Z,88.20
2022-11-29T11:27:43.145Z,88.00
2022-11-29T11:30:54.023Z,88.00
2022-11-29T11:33:55.755Z,88.00
2022-11-29T11:37:17.502Z,88.00
2022-11-29T11:40:20.763Z,87.90
2022-11-29T11:43:23.185Z,87.90
2022-11-29T11:46:48.363Z,88.00
2022-11-29T11:50:02.423Z,88.00
2022-11-29T11:53:06.574Z,88.00
2022-11-29T11:56:09.689Z,87.80
2022-11-29T11:59:24.339Z,87.80
2022-11-29T12:02:39.940Z,87.80
2022-11-29T12:05:44.940Z,87.70
2022-11-29T12:08:48.409Z,87.70
2022-11-29T12:12:19.836Z,87.50
2022-11-29T12:15:28.793Z,87.60
2022-11-29T12:18:46.544Z,87.70
2022-11-29T12:21:52.566Z,87.60
2022-11-29T12:24:57.853Z,87.60
2022-11-29T12:27:59.732Z,87.60
2022-11-29T12:31:25.341Z,87.70
2022-11-29T12:34:36.157Z,87.50
2022-11-29T12:38:20.772Z,87.40
2022-11-29T12:41:26.091Z,87.50
2022-11-29T12:44:54.310Z,87.40
2022-11-29T12:48:22.053Z,87.50
2022-11-29T12:51:39.572Z,87.30
2022-11-29T12:55:18.600Z,87.30
2022-11-29T12:58:23.087Z,87.50
2022-11-29T13:01:56.915Z,87.50
2022-11-29T13:05:03.878Z,87.20
2022-11-29T13:08:27.078Z,87.10
2022-11-29T13:11:32.685Z,87.00
2022-11-29T13:14:46.330Z,86.90
2022-11-29T13:18:17.057Z,87.00
2022-11-29T13:21:57.093Z,87.00
2022-11-29T13:25:01.586Z,87.00
2022-11-29T13:28:24.154Z,87.10
2022-11-29T13:31:26.162Z,87.00
2022-11-29T13:34:41.449Z,87.10
2022-11-29T13:37:53.563Z,87.00
2022-11-29T13:41:02.558Z,87.10
2022-11-29T13:44:36.852Z,87.20
2022-11-29T13:47:55.750Z,87.30
2022-11-29T13:50:57.378Z,87.40
2022-11-29T13:54:03.599Z,87.30
2022-11-29T13:57:08.893Z,87.40
2022-11-29T14:00:34.615Z,87.20
2022-11-29T14:03:38.484Z,87.20
2022-11-29T14:06:40.138Z,87.20
2022-11-29T14:09:58.626Z,87.30
2022-11-29T14:13:01.858Z,87.30
2022-11-29T14:16:04.273Z,87.20
2022-11-29T14:19:20.276Z,87.30
2022-11-29T14:22:22.246Z,87.50
2022-11-29T14:28:46.847Z,87.50
2022-11-29T14:31:49.832Z,87.60
2022-11-29T14:35:02.129Z,87.70
2022-11-29T14:38:15.897Z,87.70
2022-11-29T14:41:23.577Z,87.60
2022-11-29T14:44:28.001Z,87.50
2022-11-29T14:47:38.215Z,87.50
2022-11-29T14:50:40.010Z,87.50
2022-11-29T14:53:42.630Z,87.50
2022-11-29T14:56:45.494Z,87.50
2022-11-29T14:59:53.362Z,87.60
2022-11-29T15:03:01.344Z,87.60
2022-11-29T15:06:18.016Z,87.60
2022-11-29T15:09:20.421Z,87.40
2022-11-29T15:12:26.720Z,87.30
2022-11-29T15:15:28.365Z,87.10
2022-11-29T15:18:48.287Z,86.90
2022-11-29T15:22:14.791Z,87.00
2022-11-29T15:25:19.089Z,87.00
2022-11-29T15:28:25.933Z,86.80
2022-11-29T15:31:27.701Z,86.70
2022-11-29T15:34:31.397Z,86.70
2022-11-29T15:37:37.212Z,86.80
2022-11-29T15:40:40.849Z,86.80
2022-11-29T15:43:42.649Z,86.90
2022-11-29T15:46:44.546Z,87.00
2022-11-29T15:49:46.656Z,86.80
2022-11-29T15:52:48.284Z,86.60
2022-11-29T15:55:50.543Z,86.60
2022-11-29T15:58:52.526Z,86.60
2022-11-29T16:01:54.836Z,86.70
2022-11-29T16:05:01.799Z,86.70
2022-11-29T16:08:21.854Z,86.80
2022-11-29T16:11:25.065Z,86.80
2022-11-29T16:14:28.135Z,87.00
2022-11-29T16:17:34.238Z,87.10
2022-11-29T16:20:35.897Z,87.30
2022-11-29T16:23:43.693Z,87.30
2022-11-29T16:26:45.756Z,87.40
2022-11-29T16:29:47.527Z,87.40
2022-11-29T16:33:12.609Z,87.20
2022-11-29T16:36:25.134Z,87.20
2022-11-29T16:39:27.173Z,87.20
2022-11-29T16:42:30.232Z,87.30
2022-11-29T16:45:39.001Z,87.40
2022-11-29T16:48:42.298Z,87.60
2022-11-29T16:51:47.937Z,87.60
2022-11-29T16:54:49.986Z,87.50
2022-11-29T16:57:53.089Z,87.30
2022-11-29T17:00:55.364Z,87.50
2022-11-29T17:03:57.842Z,87.30
2022-11-29T17:06:59.558Z,87.50
2022-11-29T17:10:01.246Z,87.50
2022-11-29T17:13:04.403Z,87.70
2022-11-29T17:16:11.489Z,87.80
2022-11-29T17:19:13.418Z,87.70
2022-11-29T17:22:15.109Z,87.90
2022-11-29T17:25:16.833Z,87.90
2022-11-29T17:28:18.765Z,88.00
2022-11-29T17:31:21.880Z,88.00
2022-11-29T17:34:23.737Z,88.00
2022-11-29T17:37:25.686Z,88.00
2022-11-29T17:40:27.411Z,88.00
2022-11-29T17:43:29.111Z,88.00
2022-11-29T17:46:34.920Z,88.00
2022-11-29T17:49:36.554Z,88.10
2022-11-29T17:52:39.186Z,88.00
2022-11-29T17:55:40.820Z,88.10
2022-11-29T17:58:42.922Z,88.10
2022-11-29T18:01:47.046Z,88.20
2022-11-29T18:04:49.012Z,88.20
2022-11-29T18:08:00.228Z,88.20
2022-11-29T18:11:03.818Z,88.30
2022-11-29T18:14:05.526Z,88.30
2022-11-29T18:17:07.921Z,88.40
2022-11-29T18:20:09.910Z,88.20
2022-11-29T18:23:11.617Z,88.20
2022-11-29T18:26:15.578Z,88.20
2022-11-29T18:29:17.523Z,88.20
2022-11-29T18:32:19.189Z,88.20
2022-11-29T18:35:20.924Z,88.20
2022-11-29T18:38:22.797Z,88.30
2022-11-29T18:41:24.597Z,88.30
2022-11-29T18:44:29.353Z,88.30
2022-11-29T18:47:32.971Z,88.20
2022-11-29T18:50:34.627Z,88.20
2022-11-29T18:53:36.919Z,88.10
2022-11-29T18:56:38.758Z,88.10
2022-11-29T18:59:40.483Z,88.10
2022-11-29T19:02:42.376Z,88.20
2022-11-29T19:05:54.277Z,88.20
2022-11-29T19:08:58.375Z,88.20
2022-11-29T19:12:01.078Z,88.30
2022-11-29T19:15:03.287Z,88.20
2022-11-29T19:18:05.030Z,88.40
2022-11-29T19:21:16.180Z,88.30
2022-11-29T19:24:18.457Z,88.40
2022-11-29T19:27:21.202Z,88.40
2022-11-29T19:30:22.874Z,88.40
2022-11-29T19:33:24.539Z,88.60
2022-11-29T19:36:30.356Z,88.60
2022-11-29T19:39:33.875Z,88.50
2022-11-29T19:42:35.538Z,88.40
2022-11-29T19:45:40.403Z,88.30
2022-11-29T19:48:42.316Z,88.40
2022-11-29T19:51:44.022Z,88.50
2022-11-29T19:54:45.689Z,88.50
2022-11-29T19:57:47.541Z,88.50
2022-11-29T20:00:49.208Z,88.50
2022-11-29T20:03:51.842Z,88.40
2022-11-29T20:06:54.685Z,88.50
2022-11-29T20:09:56.322Z,88.50
2022-11-29T20:12:57.974Z,88.50
2022-11-29T20:16:04.222Z,88.70
2022-11-29T20:19:13.922Z,88.50
2022-11-29T20:22:15.619Z,88.40
2022-11-29T20:25:17.305Z,88.60
2022-11-29T20:28:19.044Z,88.70
2022-11-29T20:31:22.629Z,88.70
2022-11-29T20:34:24.544Z,88.80
2022-11-29T20:37:26.543Z,88.80
2022-11-29T20:40:31.670Z,88.70
2022-11-29T20:43:41.091Z,88.70
2022-11-29T20:46:43.040Z,88.60
2022-11-29T20:49:45.187Z,88.60
2022-11-29T20:52:55.891Z,88.50
2022-11-29T20:55:57.627Z,88.30
2022-11-29T20:58:59.556Z,88.30
2022-11-29T21:02:02.496Z,88.30
2022-11-29T21:05:05.982Z,88.20
2022-11-29T21:08:08.385Z,88.30
2022-11-29T21:11:10.519Z,88.60
2022-11-29T21:14:12.453Z,88.60
2022-11-29T21:17:14.633Z,88.70
2022-11-29T21:20:22.563Z,88.50
2022-11-29T21:23:56.797Z,88.40
2022-11-29T21:26:58.723Z,88.60
2022-11-29T21:30:03.285Z,88.70
2022-11-29T21:33:05.327Z,88.50
2022-11-29T21:36:07.262Z,88.50
2022-11-29T21:39:12.530Z,88.50
2022-11-29T21:42:14.229Z,88.40
2022-11-29T21:45:16.983Z,88.30
2022-11-29T21:48:37.751Z,88.30
2022-11-29T21:51:39.486Z,88.30
2022-11-29T21:54:41.280Z,88.20
2022-11-29T21:57:43.164Z,88.10
2022-11-29T22:00:45.203Z,88.20
2022-11-29T22:03:47.046Z,88.30
2022-11-29T22:06:48.861Z,88.40
2022-11-29T22:09:50.545Z,88.60
2022-11-29T22:12:52.850Z,88.70
2022-11-29T22:15:54.647Z,88.70
2022-11-29T22:18:56.325Z,88.70
2022-11-29T22:21:59.581Z,88.70
2022-11-29T22:25:01.241Z,88.60
2022-11-29T22:28:03.011Z,88.50
2022-11-29T22:31:06.068Z,88.40
2022-11-29T22:34:07.784Z,88.40
2022-11-29T22:37:09.533Z,88.30
2022-11-29T22:40:11.529Z,88.30
2022-11-29T22:43:13.160Z,88.40
2022-11-29T22:46:19.439Z,88.40
2022-11-29T22:49:21.397Z,88.40
2022-11-29T22:52:23.047Z,88.50
2022-11-29T22:55:24.676Z,88.60
2022-11-29T22:58:26.586Z,88.70
2022-11-29T23:01:29.453Z,88.70
2022-11-29T23:04:31.168Z,88.60
2022-11-29T23:07:33.128Z,88.60
2022-11-29T23:10:34.805Z,88.70
2022-11-29T23:13:37.553Z,88.80
2022-11-29T23:16:41.731Z,88.70
2022-11-29T23:19:43.481Z,88.60
2022-11-29T23:22:45.221Z,88.70
2022-11-29T23:25:48.643Z,88.90
2022-11-29T23:28:50.792Z,88.80
2022-11-29T23:31:52.551Z,88.70
2022-11-29T23:34:54.250Z,88.60
2022-11-29T23:37:56.022Z,88.70
2022-11-29T23:40:57.649Z,88.60
2022-11-29T23:44:02.043Z,88.60
2022-11-29T23:47:03.780Z,88.60
2022-11-29T23:50:06.080Z,88.40
2022-11-29T23:53:07.713Z,88.30
2022-11-29T23:56:13.946Z,88.40
2022-11-29T23:59:15.879Z,88.50
